sensor_id;sensor_type;location;lat;lon;timestamp;P1;durP1;ratioP1;P2;durP2;ratioP2
12635;SDS011;6383;50.830;7.210;2023-11-21T00:00:17;11.98;;;6.25;;
12635;SDS011;6383;50.830;7.210;2023-11-21T00:02:45;10.43;;;5.10;;
12635;SDS011;6383;50.830;7.210;2023-11-21T00:05:14;11.45;;;5.40;;
12635;SDS011;6383;50.830;7.210;2023-11-21T00:07:44;8.67;;;5.40;;
12635;SDS011;6383;50.830;7.210;2023-11-21T00:10:12;11.15;;;5.40;;
12635;SDS011;6383;50.830;7.210;2023-11-21T00:12:42;8.10;;;6.13;;
12635;SDS011;6383;50.830;7.210;2023-11-21T00:15:10;10.20;;;6.00;;
12635;SDS011;6383;50.830;7.210;2023-11-21T00:17:37;11.10;;;6.60;;
12635;SDS011;6383;50.830;7.210;2023-11-21T00:20:07;13.98;;;7.22;;
12635;SDS011;6383;50.830;7.210;2023-11-21T00:22:34;10.07;;;7.13;;
12635;SDS011;6383;50.830;7.210;2023-11-21T00:25:03;9.50;;;6.18;;
12635;SDS011;6383;50.830;7.210;2023-11-21T00:27:30;13.85;;;6.60;;
12635;SDS011;6383;50.830;7.210;2023-11-21T00:29:58;8.90;;;6.40;;
12635;SDS011;6383;50.830;7.210;2023-11-21T00:32:27;8.77;;;6.18;;
12635;SDS011;6383;50.830;7.210;2023-11-21T00:34:55;11.45;;;7.38;;
12635;SDS011;6383;50.830;7.210;2023-11-21T00:37:22;10.88;;;7.35;;
12635;SDS011;6383;50.830;7.210;2023-11-21T00:39:51;12.18;;;6.78;;
12635;SDS011;6383;50.830;7.210;2023-11-21T00:42:21;9.82;;;6.53;;
12635;SDS011;6383;50.830;7.210;2023-11-21T00:44:48;17.98;;;6.82;;
12635;SDS011;6383;50.830;7.210;2023-11-21T00:47:17;10.00;;;7.25;;
12635;SDS011;6383;50.830;7.210;2023-11-21T00:49:45;10.88;;;7.90;;
12635;SDS011;6383;50.830;7.210;2023-11-21T00:52:12;13.02;;;7.82;;
12635;SDS011;6383;50.830;7.210;2023-11-21T00:54:39;13.38;;;9.60;;
12635;SDS011;6383;50.830;7.210;2023-11-21T00:57:07;14.02;;;10.82;;
12635;SDS011;6383;50.830;7.210;2023-11-21T00:59:36;15.05;;;9.15;;
12635;SDS011;6383;50.830;7.210;2023-11-21T01:02:04;12.45;;;9.93;;
12635;SDS011;6383;50.830;7.210;2023-11-21T01:04:32;14.93;;;9.23;;
12635;SDS011;6383;50.830;7.210;2023-11-21T01:07:01;12.87;;;9.20;;
12635;SDS011;6383;50.830;7.210;2023-11-21T01:09:28;13.85;;;10.30;;
12635;SDS011;6383;50.830;7.210;2023-11-21T01:11:55;16.05;;;10.15;;
12635;SDS011;6383;50.830;7.210;2023-11-21T01:14:24;17.10;;;10.80;;
12635;SDS011;6383;50.830;7.210;2023-11-21T01:16:55;12.20;;;10.48;;
12635;SDS011;6383;50.830;7.210;2023-11-21T01:19:23;15.68;;;9.82;;
12635;SDS011;6383;50.830;7.210;2023-11-21T01:21:50;17.02;;;9.85;;
12635;SDS011;6383;50.830;7.210;2023-11-21T01:24:20;17.05;;;11.50;;
12635;SDS011;6383;50.830;7.210;2023-11-21T01:26:49;14.57;;;10.40;;
12635;SDS011;6383;50.830;7.210;2023-11-21T01:29:17;13.87;;;10.83;;
12635;SDS011;6383;50.830;7.210;2023-11-21T01:31:47;16.33;;;10.98;;
12635;SDS011;6383;50.830;7.210;2023-11-21T01:34:17;19.05;;;11.35;;
12635;SDS011;6383;50.830;7.210;2023-11-21T01:36:45;16.67;;;10.97;;
12635;SDS011;6383;50.830;7.210;2023-11-21T01:39:14;15.80;;;10.73;;
12635;SDS011;6383;50.830;7.210;2023-11-21T01:41:44;14.05;;;10.20;;
12635;SDS011;6383;50.830;7.210;2023-11-21T01:44:13;17.20;;;10.77;;
12635;SDS011;6383;50.830;7.210;2023-11-21T01:46:42;15.48;;;10.68;;
12635;SDS011;6383;50.830;7.210;2023-11-21T01:49:10;15.05;;;12.38;;
12635;SDS011;6383;50.830;7.210;2023-11-21T01:51:42;20.25;;;11.25;;
12635;SDS011;6383;50.830;7.210;2023-11-21T01:54:11;15.38;;;10.93;;
12635;SDS011;6383;50.830;7.210;2023-11-21T01:56:40;14.98;;;11.18;;
12635;SDS011;6383;50.830;7.210;2023-11-21T01:59:08;16.92;;;11.38;;
12635;SDS011;6383;50.830;7.210;2023-11-21T02:01:37;14.40;;;10.73;;
12635;SDS011;6383;50.830;7.210;2023-11-21T02:04:04;16.42;;;11.48;;
12635;SDS011;6383;50.830;7.210;2023-11-21T02:06:34;13.25;;;10.70;;
12635;SDS011;6383;50.830;7.210;2023-11-21T02:09:04;15.73;;;11.05;;
12635;SDS011;6383;50.830;7.210;2023-11-21T02:11:32;15.10;;;10.55;;
12635;SDS011;6383;50.830;7.210;2023-11-21T02:14:01;13.57;;;10.57;;
12635;SDS011;6383;50.830;7.210;2023-11-21T02:16:30;15.68;;;11.18;;
12635;SDS011;6383;50.830;7.210;2023-11-21T02:18:59;14.10;;;11.60;;
12635;SDS011;6383;50.830;7.210;2023-11-21T02:21:27;14.90;;;11.68;;
12635;SDS011;6383;50.830;7.210;2023-11-21T02:23:57;18.05;;;11.93;;
12635;SDS011;6383;50.830;7.210;2023-11-21T02:26:26;17.10;;;12.45;;
12635;SDS011;6383;50.830;7.210;2023-11-21T02:28:55;21.77;;;14.77;;
12635;SDS011;6383;50.830;7.210;2023-11-21T02:31:25;18.60;;;12.38;;
12635;SDS011;6383;50.830;7.210;2023-11-21T02:33:54;19.30;;;11.90;;
12635;SDS011;6383;50.830;7.210;2023-11-21T02:36:21;17.90;;;11.63;;
12635;SDS011;6383;50.830;7.210;2023-11-21T02:38:49;17.83;;;12.13;;
12635;SDS011;6383;50.830;7.210;2023-11-21T02:41:19;16.77;;;12.02;;
12635;SDS011;6383;50.830;7.210;2023-11-21T02:43:48;21.23;;;13.10;;
12635;SDS011;6383;50.830;7.210;2023-11-21T02:46:16;15.13;;;11.95;;
12635;SDS011;6383;50.830;7.210;2023-11-21T02:48:43;17.00;;;12.13;;
12635;SDS011;6383;50.830;7.210;2023-11-21T02:51:10;16.83;;;12.73;;
12635;SDS011;6383;50.830;7.210;2023-11-21T02:53:39;17.80;;;11.23;;
12635;SDS011;6383;50.830;7.210;2023-11-21T02:56:08;16.65;;;11.50;;
12635;SDS011;6383;50.830;7.210;2023-11-21T02:58:36;23.67;;;13.97;;
12635;SDS011;6383;50.830;7.210;2023-11-21T03:01:04;18.47;;;11.80;;
12635;SDS011;6383;50.830;7.210;2023-11-21T03:03:32;16.65;;;11.18;;
12635;SDS011;6383;50.830;7.210;2023-11-21T03:06:01;15.30;;;12.13;;
12635;SDS011;6383;50.830;7.210;2023-11-21T03:08:30;17.40;;;12.02;;
12635;SDS011;6383;50.830;7.210;2023-11-21T03:10:59;16.08;;;12.02;;
12635;SDS011;6383;50.830;7.210;2023-11-21T03:13:27;15.50;;;11.40;;
12635;SDS011;6383;50.830;7.210;2023-11-21T03:15:57;19.00;;;13.03;;
12635;SDS011;6383;50.830;7.210;2023-11-21T03:18:25;12.55;;;11.30;;
12635;SDS011;6383;50.830;7.210;2023-11-21T03:20:57;15.97;;;11.73;;
12635;SDS011;6383;50.830;7.210;2023-11-21T03:23:25;17.42;;;12.65;;
12635;SDS011;6383;50.830;7.210;2023-11-21T03:25:52;16.10;;;12.07;;
12635;SDS011;6383;50.830;7.210;2023-11-21T03:28:21;14.10;;;11.00;;
12635;SDS011;6383;50.830;7.210;2023-11-21T03:30:49;11.85;;;10.63;;
12635;SDS011;6383;50.830;7.210;2023-11-21T03:33:17;18.83;;;12.45;;
12635;SDS011;6383;50.830;7.210;2023-11-21T03:35:46;17.95;;;11.90;;
12635;SDS011;6383;50.830;7.210;2023-11-21T03:38:15;17.77;;;12.03;;
12635;SDS011;6383;50.830;7.210;2023-11-21T03:40:44;16.45;;;11.40;;
12635;SDS011;6383;50.830;7.210;2023-11-21T03:43:13;17.02;;;12.23;;
12635;SDS011;6383;50.830;7.210;2023-11-21T03:45:41;16.80;;;11.32;;
12635;SDS011;6383;50.830;7.210;2023-11-21T03:48:09;20.83;;;12.60;;
12635;SDS011;6383;50.830;7.210;2023-11-21T03:50:41;16.70;;;11.32;;
12635;SDS011;6383;50.830;7.210;2023-11-21T03:53:10;22.70;;;12.70;;
12635;SDS011;6383;50.830;7.210;2023-11-21T03:55:39;16.77;;;10.95;;
12635;SDS011;6383;50.830;7.210;2023-11-21T03:58:07;19.92;;;13.60;;
12635;SDS011;6383;50.830;7.210;2023-11-21T04:00:35;18.92;;;13.20;;
12635;SDS011;6383;50.830;7.210;2023-11-21T04:03:03;25.35;;;13.65;;
12635;SDS011;6383;50.830;7.210;2023-11-21T04:05:31;19.98;;;12.35;;
12635;SDS011;6383;50.830;7.210;2023-11-21T04:08:00;15.40;;;11.73;;
12635;SDS011;6383;50.830;7.210;2023-11-21T04:10:27;17.05;;;11.55;;
12635;SDS011;6383;50.830;7.210;2023-11-21T04:12:56;18.00;;;11.32;;
12635;SDS011;6383;50.830;7.210;2023-11-21T04:15:24;19.33;;;13.05;;
12635;SDS011;6383;50.830;7.210;2023-11-21T04:17:51;17.63;;;12.20;;
12635;SDS011;6383;50.830;7.210;2023-11-21T04:20:19;13.90;;;12.27;;
12635;SDS011;6383;50.830;7.210;2023-11-21T04:22:51;17.85;;;12.43;;
12635;SDS011;6383;50.830;7.210;2023-11-21T04:25:21;14.38;;;12.02;;
12635;SDS011;6383;50.830;7.210;2023-11-21T04:27:50;15.68;;;13.00;;
12635;SDS011;6383;50.830;7.210;2023-11-21T04:30:17;17.25;;;13.50;;
12635;SDS011;6383;50.830;7.210;2023-11-21T04:32:45;18.55;;;13.05;;
12635;SDS011;6383;50.830;7.210;2023-11-21T04:35:13;16.88;;;12.88;;
12635;SDS011;6383;50.830;7.210;2023-11-21T04:37:41;13.80;;;12.13;;
12635;SDS011;6383;50.830;7.210;2023-11-21T04:40:08;14.90;;;11.30;;
12635;SDS011;6383;50.830;7.210;2023-11-21T04:42:37;14.65;;;10.60;;
12635;SDS011;6383;50.830;7.210;2023-11-21T04:45:06;17.92;;;11.05;;
12635;SDS011;6383;50.830;7.210;2023-11-21T04:47:35;18.45;;;11.73;;
12635;SDS011;6383;50.830;7.210;2023-11-21T04:50:04;15.00;;;10.80;;
12635;SDS011;6383;50.830;7.210;2023-11-21T04:52:33;18.83;;;12.77;;
12635;SDS011;6383;50.830;7.210;2023-11-21T04:55:02;20.90;;;11.77;;
12635;SDS011;6383;50.830;7.210;2023-11-21T04:57:30;14.82;;;10.82;;
12635;SDS011;6383;50.830;7.210;2023-11-21T05:00:01;17.30;;;11.70;;
12635;SDS011;6383;50.830;7.210;2023-11-21T05:02:33;12.73;;;10.90;;
12635;SDS011;6383;50.830;7.210;2023-11-21T05:05:02;17.85;;;11.40;;
12635;SDS011;6383;50.830;7.210;2023-11-21T05:07:32;18.50;;;12.30;;
12635;SDS011;6383;50.830;7.210;2023-11-21T05:10:03;16.67;;;12.18;;
12635;SDS011;6383;50.830;7.210;2023-11-21T05:12:33;18.27;;;10.85;;
12635;SDS011;6383;50.830;7.210;2023-11-21T05:15:04;13.38;;;10.55;;
12635;SDS011;6383;50.830;7.210;2023-11-21T05:17:33;15.15;;;11.77;;
12635;SDS011;6383;50.830;7.210;2023-11-21T05:20:03;20.38;;;13.25;;
12635;SDS011;6383;50.830;7.210;2023-11-21T05:22:31;18.83;;;11.63;;
12635;SDS011;6383;50.830;7.210;2023-11-21T05:25:00;13.02;;;11.32;;
12635;SDS011;6383;50.830;7.210;2023-11-21T05:27:28;16.52;;;10.90;;
12635;SDS011;6383;50.830;7.210;2023-11-21T05:29:56;16.50;;;11.18;;
12635;SDS011;6383;50.830;7.210;2023-11-21T05:32:26;13.02;;;10.85;;
12635;SDS011;6383;50.830;7.210;2023-11-21T05:34:54;13.00;;;9.75;;
12635;SDS011;6383;50.830;7.210;2023-11-21T05:37:22;14.20;;;11.77;;
12635;SDS011;6383;50.830;7.210;2023-11-21T05:39:51;20.08;;;12.23;;
12635;SDS011;6383;50.830;7.210;2023-11-21T05:42:19;18.85;;;15.43;;
12635;SDS011;6383;50.830;7.210;2023-11-21T05:44:48;20.10;;;12.23;;
12635;SDS011;6383;50.830;7.210;2023-11-21T05:47:15;18.30;;;12.33;;
12635;SDS011;6383;50.830;7.210;2023-11-21T05:49:43;19.05;;;14.68;;
12635;SDS011;6383;50.830;7.210;2023-11-21T05:52:12;22.65;;;14.02;;
12635;SDS011;6383;50.830;7.210;2023-11-21T05:54:41;17.08;;;13.02;;
12635;SDS011;6383;50.830;7.210;2023-11-21T05:57:10;21.17;;;13.32;;
12635;SDS011;6383;50.830;7.210;2023-11-21T05:59:38;18.15;;;12.07;;
12635;SDS011;6383;50.830;7.210;2023-11-21T06:02:06;20.52;;;13.80;;
12635;SDS011;6383;50.830;7.210;2023-11-21T06:04:34;21.40;;;13.23;;
12635;SDS011;6383;50.830;7.210;2023-11-21T06:07:04;18.98;;;12.02;;
12635;SDS011;6383;50.830;7.210;2023-11-21T06:09:33;15.00;;;12.88;;
12635;SDS011;6383;50.830;7.210;2023-11-21T06:12:03;17.85;;;14.93;;
12635;SDS011;6383;50.830;7.210;2023-11-21T06:14:31;19.75;;;13.68;;
12635;SDS011;6383;50.830;7.210;2023-11-21T06:17:02;16.20;;;13.57;;
12635;SDS011;6383;50.830;7.210;2023-11-21T06:19:31;17.67;;;14.43;;
12635;SDS011;6383;50.830;7.210;2023-11-21T06:22:00;20.80;;;14.68;;
12635;SDS011;6383;50.830;7.210;2023-11-21T06:24:29;22.23;;;13.90;;
12635;SDS011;6383;50.830;7.210;2023-11-21T06:26:55;19.40;;;14.63;;
12635;SDS011;6383;50.830;7.210;2023-11-21T06:29:23;22.08;;;14.25;;
12635;SDS011;6383;50.830;7.210;2023-11-21T06:31:52;17.40;;;13.45;;
12635;SDS011;6383;50.830;7.210;2023-11-21T06:34:22;19.17;;;13.93;;
12635;SDS011;6383;50.830;7.210;2023-11-21T06:36:49;17.85;;;14.57;;
12635;SDS011;6383;50.830;7.210;2023-11-21T06:39:18;21.70;;;15.38;;
12635;SDS011;6383;50.830;7.210;2023-11-21T06:41:51;18.42;;;13.88;;
12635;SDS011;6383;50.830;7.210;2023-11-21T06:44:20;17.50;;;13.45;;
12635;SDS011;6383;50.830;7.210;2023-11-21T06:46:48;24.67;;;15.82;;
12635;SDS011;6383;50.830;7.210;2023-11-21T06:49:17;24.30;;;16.47;;
12635;SDS011;6383;50.830;7.210;2023-11-21T06:51:46;22.67;;;15.75;;
12635;SDS011;6383;50.830;7.210;2023-11-21T06:54:14;17.50;;;15.38;;
12635;SDS011;6383;50.830;7.210;2023-11-21T06:56:43;22.23;;;15.60;;
12635;SDS011;6383;50.830;7.210;2023-11-21T06:59:12;25.30;;;17.85;;
12635;SDS011;6383;50.830;7.210;2023-11-21T07:01:41;28.55;;;17.25;;
12635;SDS011;6383;50.830;7.210;2023-11-21T07:04:10;27.00;;;18.88;;
12635;SDS011;6383;50.830;7.210;2023-11-21T07:06:39;27.95;;;21.88;;
12635;SDS011;6383;50.830;7.210;2023-11-21T07:09:06;24.00;;;17.60;;
12635;SDS011;6383;50.830;7.210;2023-11-21T07:11:34;28.00;;;19.33;;
12635;SDS011;6383;50.830;7.210;2023-11-21T07:14:03;27.27;;;19.17;;
12635;SDS011;6383;50.830;7.210;2023-11-21T07:16:35;38.05;;;22.40;;
12635;SDS011;6383;50.830;7.210;2023-11-21T07:19:05;32.63;;;20.90;;
12635;SDS011;6383;50.830;7.210;2023-11-21T07:21:34;37.60;;;22.30;;
12635;SDS011;6383;50.830;7.210;2023-11-21T07:24:03;27.33;;;18.57;;
12635;SDS011;6383;50.830;7.210;2023-11-21T07:26:33;25.20;;;18.90;;
12635;SDS011;6383;50.830;7.210;2023-11-21T07:29:02;35.22;;;22.00;;
12635;SDS011;6383;50.830;7.210;2023-11-21T07:31:31;31.88;;;20.45;;
12635;SDS011;6383;50.830;7.210;2023-11-21T07:34:03;35.08;;;22.80;;
12635;SDS011;6383;50.830;7.210;2023-11-21T07:36:30;37.95;;;22.63;;
12635;SDS011;6383;50.830;7.210;2023-11-21T07:38:59;38.63;;;23.80;;
12635;SDS011;6383;50.830;7.210;2023-11-21T07:41:28;33.47;;;22.20;;
12635;SDS011;6383;50.830;7.210;2023-11-21T07:43:56;34.80;;;22.17;;
12635;SDS011;6383;50.830;7.210;2023-11-21T07:46:25;37.58;;;23.50;;
12635;SDS011;6383;50.830;7.210;2023-11-21T07:48:54;42.03;;;26.60;;
12635;SDS011;6383;50.830;7.210;2023-11-21T07:51:24;30.70;;;20.30;;
12635;SDS011;6383;50.830;7.210;2023-11-21T07:53:53;24.70;;;17.07;;
12635;SDS011;6383;50.830;7.210;2023-11-21T07:56:22;29.90;;;17.58;;
12635;SDS011;6383;50.830;7.210;2023-11-21T07:58:50;30.83;;;19.73;;
12635;SDS011;6383;50.830;7.210;2023-11-21T08:01:18;29.35;;;18.90;;
12635;SDS011;6383;50.830;7.210;2023-11-21T08:03:45;30.70;;;19.90;;
12635;SDS011;6383;50.830;7.210;2023-11-21T08:06:18;32.45;;;19.30;;
12635;SDS011;6383;50.830;7.210;2023-11-21T08:08:48;32.65;;;20.60;;
12635;SDS011;6383;50.830;7.210;2023-11-21T08:11:17;36.42;;;21.10;;
12635;SDS011;6383;50.830;7.210;2023-11-21T08:13:46;28.65;;;19.88;;
12635;SDS011;6383;50.830;7.210;2023-11-21T08:16:14;29.67;;;20.77;;
12635;SDS011;6383;50.830;7.210;2023-11-21T08:18:43;34.42;;;21.17;;
12635;SDS011;6383;50.830;7.210;2023-11-21T08:21:12;38.80;;;23.48;;
12635;SDS011;6383;50.830;7.210;2023-11-21T08:23:39;39.05;;;22.95;;
12635;SDS011;6383;50.830;7.210;2023-11-21T08:26:08;31.88;;;21.63;;
12635;SDS011;6383;50.830;7.210;2023-11-21T08:28:36;35.65;;;22.38;;
12635;SDS011;6383;50.830;7.210;2023-11-21T08:31:04;39.13;;;23.65;;
12635;SDS011;6383;50.830;7.210;2023-11-21T08:33:32;33.00;;;20.90;;
12635;SDS011;6383;50.830;7.210;2023-11-21T08:36:00;36.13;;;22.25;;
12635;SDS011;6383;50.830;7.210;2023-11-21T08:38:27;33.17;;;22.85;;
12635;SDS011;6383;50.830;7.210;2023-11-21T08:40:55;37.38;;;23.38;;
12635;SDS011;6383;50.830;7.210;2023-11-21T08:43:25;41.20;;;23.23;;
12635;SDS011;6383;50.830;7.210;2023-11-21T08:45:54;33.78;;;22.13;;
12635;SDS011;6383;50.830;7.210;2023-11-21T08:48:22;36.80;;;22.73;;
12635;SDS011;6383;50.830;7.210;2023-11-21T08:50:49;51.13;;;27.40;;
12635;SDS011;6383;50.830;7.210;2023-11-21T08:53:18;47.27;;;26.67;;
12635;SDS011;6383;50.830;7.210;2023-11-21T08:55:47;55.55;;;31.70;;
12635;SDS011;6383;50.830;7.210;2023-11-21T08:58:17;51.63;;;38.17;;
12635;SDS011;6383;50.830;7.210;2023-11-21T09:00:46;50.20;;;33.47;;
12635;SDS011;6383;50.830;7.210;2023-11-21T09:03:14;51.67;;;33.80;;
12635;SDS011;6383;50.830;7.210;2023-11-21T09:05:42;55.63;;;35.73;;
12635;SDS011;6383;50.830;7.210;2023-11-21T09:08:12;51.73;;;34.53;;
12635;SDS011;6383;50.830;7.210;2023-11-21T09:10:39;49.15;;;33.42;;
12635;SDS011;6383;50.830;7.210;2023-11-21T09:13:09;57.37;;;36.57;;
12635;SDS011;6383;50.830;7.210;2023-11-21T09:15:36;53.17;;;35.15;;
12635;SDS011;6383;50.830;7.210;2023-11-21T09:18:04;49.92;;;35.13;;
12635;SDS011;6383;50.830;7.210;2023-11-21T09:20:32;58.42;;;37.03;;
12635;SDS011;6383;50.830;7.210;2023-11-21T09:23:01;53.40;;;35.60;;
12635;SDS011;6383;50.830;7.210;2023-11-21T09:25:29;61.97;;;37.95;;
12635;SDS011;6383;50.830;7.210;2023-11-21T09:27:56;66.20;;;39.47;;
12635;SDS011;6383;50.830;7.210;2023-11-21T09:30:25;60.55;;;38.75;;
12635;SDS011;6383;50.830;7.210;2023-11-21T09:32:53;64.10;;;39.47;;
12635;SDS011;6383;50.830;7.210;2023-11-21T09:35:24;61.53;;;38.60;;
12635;SDS011;6383;50.830;7.210;2023-11-21T09:37:51;63.10;;;38.63;;
12635;SDS011;6383;50.830;7.210;2023-11-21T09:40:20;54.58;;;36.35;;
12635;SDS011;6383;50.830;7.210;2023-11-21T09:42:53;61.55;;;39.85;;
12635;SDS011;6383;50.830;7.210;2023-11-21T09:45:24;55.78;;;38.10;;
12635;SDS011;6383;50.830;7.210;2023-11-21T09:47:54;51.72;;;35.80;;
12635;SDS011;6383;50.830;7.210;2023-11-21T09:50:22;54.50;;;36.75;;
12635;SDS011;6383;50.830;7.210;2023-11-21T09:52:55;52.97;;;36.67;;
12635;SDS011;6383;50.830;7.210;2023-11-21T09:55:25;52.20;;;35.30;;
12635;SDS011;6383;50.830;7.210;2023-11-21T09:57:56;45.50;;;32.55;;
12635;SDS011;6383;50.830;7.210;2023-11-21T10:00:22;47.75;;;34.60;;
12635;SDS011;6383;50.830;7.210;2023-11-21T10:02:52;43.88;;;33.00;;
12635;SDS011;6383;50.830;7.210;2023-11-21T10:05:19;47.05;;;35.35;;
12635;SDS011;6383;50.830;7.210;2023-11-21T10:07:49;63.80;;;47.97;;
12635;SDS011;6383;50.830;7.210;2023-11-21T10:10:20;104.90;;;79.43;;
12635;SDS011;6383;50.830;7.210;2023-11-21T10:12:50;51.65;;;37.90;;
12635;SDS011;6383;50.830;7.210;2023-11-21T10:15:21;147.70;;;118.87;;
12635;SDS011;6383;50.830;7.210;2023-11-21T10:17:50;60.05;;;44.30;;
12635;SDS011;6383;50.830;7.210;2023-11-21T10:20:19;63.08;;;39.13;;
12635;SDS011;6383;50.830;7.210;2023-11-21T10:22:48;59.25;;;38.58;;
12635;SDS011;6383;50.830;7.210;2023-11-21T10:25:16;55.25;;;36.85;;
12635;SDS011;6383;50.830;7.210;2023-11-21T10:27:47;59.72;;;38.80;;
12635;SDS011;6383;50.830;7.210;2023-11-21T10:30:18;54.30;;;34.50;;
12635;SDS011;6383;50.830;7.210;2023-11-21T10:32:45;56.33;;;36.57;;
12635;SDS011;6383;50.830;7.210;2023-11-21T10:35:14;50.15;;;36.63;;
12635;SDS011;6383;50.830;7.210;2023-11-21T10:37:42;47.10;;;34.72;;
12635;SDS011;6383;50.830;7.210;2023-11-21T10:40:11;52.55;;;35.90;;
12635;SDS011;6383;50.830;7.210;2023-11-21T10:42:40;51.25;;;34.17;;
12635;SDS011;6383;50.830;7.210;2023-11-21T10:45:09;50.42;;;36.20;;
12635;SDS011;6383;50.830;7.210;2023-11-21T10:47:39;57.78;;;37.55;;
12635;SDS011;6383;50.830;7.210;2023-11-21T10:50:06;53.05;;;38.47;;
12635;SDS011;6383;50.830;7.210;2023-11-21T10:52:39;54.88;;;37.63;;
12635;SDS011;6383;50.830;7.210;2023-11-21T10:55:18;51.20;;;35.28;;
12635;SDS011;6383;50.830;7.210;2023-11-21T10:57:48;51.53;;;35.50;;
12635;SDS011;6383;50.830;7.210;2023-11-21T11:00:18;59.42;;;37.45;;
12635;SDS011;6383;50.830;7.210;2023-11-21T11:02:49;52.83;;;34.80;;
12635;SDS011;6383;50.830;7.210;2023-11-21T11:05:18;60.88;;;37.60;;
12635;SDS011;6383;50.830;7.210;2023-11-21T11:07:48;50.22;;;35.15;;
12635;SDS011;6383;50.830;7.210;2023-11-21T11:10:18;45.03;;;33.97;;
12635;SDS011;6383;50.830;7.210;2023-11-21T11:12:47;47.08;;;32.13;;
12635;SDS011;6383;50.830;7.210;2023-11-21T11:15:15;33.37;;;25.70;;
12635;SDS011;6383;50.830;7.210;2023-11-21T11:17:44;39.85;;;27.08;;
12635;SDS011;6383;50.830;7.210;2023-11-21T11:20:14;49.47;;;33.53;;
12635;SDS011;6383;50.830;7.210;2023-11-21T11:22:47;47.45;;;32.15;;
12635;SDS011;6383;50.830;7.210;2023-11-21T11:25:26;40.45;;;30.05;;
12635;SDS011;6383;50.830;7.210;2023-11-21T11:28:00;41.88;;;29.05;;
12635;SDS011;6383;50.830;7.210;2023-11-21T11:30:37;44.67;;;30.70;;
12635;SDS011;6383;50.830;7.210;2023-11-21T11:33:11;41.63;;;29.92;;
12635;SDS011;6383;50.830;7.210;2023-11-21T11:35:46;48.63;;;31.15;;
12635;SDS011;6383;50.830;7.210;2023-11-21T11:38:17;45.13;;;30.27;;
12635;SDS011;6383;50.830;7.210;2023-11-21T11:40:46;39.30;;;28.03;;
12635;SDS011;6383;50.830;7.210;2023-11-21T11:43:22;40.53;;;27.95;;
12635;SDS011;6383;50.830;7.210;2023-11-21T11:45:55;39.38;;;26.45;;
12635;SDS011;6383;50.830;7.210;2023-11-21T11:48:25;37.38;;;27.23;;
12635;SDS011;6383;50.830;7.210;2023-11-21T11:51:03;50.65;;;30.40;;
12635;SDS011;6383;50.830;7.210;2023-11-21T11:53:33;37.17;;;28.27;;
12635;SDS011;6383;50.830;7.210;2023-11-21T11:56:21;44.72;;;30.02;;
12635;SDS011;6383;50.830;7.210;2023-11-21T11:58:51;43.40;;;29.17;;
12635;SDS011;6383;50.830;7.210;2023-11-21T12:01:20;38.35;;;28.08;;
12635;SDS011;6383;50.830;7.210;2023-11-21T12:06:34;42.40;;;29.73;;
12635;SDS011;6383;50.830;7.210;2023-11-21T12:09:03;43.95;;;29.65;;
12635;SDS011;6383;50.830;7.210;2023-11-21T12:11:32;39.80;;;29.60;;
12635;SDS011;6383;50.830;7.210;2023-11-21T12:14:02;45.47;;;31.70;;
12635;SDS011;6383;50.830;7.210;2023-11-21T12:16:33;53.20;;;32.80;;
12635;SDS011;6383;50.830;7.210;2023-11-21T12:19:02;52.05;;;32.92;;
12635;SDS011;6383;50.830;7.210;2023-11-21T12:21:28;46.15;;;31.83;;
12635;SDS011;6383;50.830;7.210;2023-11-21T12:24:01;45.58;;;32.45;;
12635;SDS011;6383;50.830;7.210;2023-11-21T12:26:30;45.83;;;31.77;;
12635;SDS011;6383;50.830;7.210;2023-11-21T12:28:57;46.63;;;32.08;;
12635;SDS011;6383;50.830;7.210;2023-11-21T12:31:26;45.85;;;32.63;;
12635;SDS011;6383;50.830;7.210;2023-11-21T12:33:56;44.57;;;31.97;;
12635;SDS011;6383;50.830;7.210;2023-11-21T12:36:24;46.08;;;32.22;;
12635;SDS011;6383;50.830;7.210;2023-11-21T12:38:53;42.58;;;31.20;;
12635;SDS011;6383;50.830;7.210;2023-11-21T12:41:23;45.40;;;33.65;;
12635;SDS011;6383;50.830;7.210;2023-11-21T12:43:51;45.30;;;33.45;;
12635;SDS011;6383;50.830;7.210;2023-11-21T12:46:20;50.20;;;33.28;;
12635;SDS011;6383;50.830;7.210;2023-11-21T12:48:48;49.92;;;35.10;;
12635;SDS011;6383;50.830;7.210;2023-11-21T12:51:17;45.50;;;32.75;;
12635;SDS011;6383;50.830;7.210;2023-11-21T12:53:46;42.13;;;30.65;;
12635;SDS011;6383;50.830;7.210;2023-11-21T12:56:13;43.33;;;29.43;;
12635;SDS011;6383;50.830;7.210;2023-11-21T12:58:45;43.88;;;29.60;;
12635;SDS011;6383;50.830;7.210;2023-11-21T13:01:12;40.97;;;28.20;;
12635;SDS011;6383;50.830;7.210;2023-11-21T13:03:48;42.88;;;30.17;;
12635;SDS011;6383;50.830;7.210;2023-11-21T13:06:18;42.75;;;30.80;;
12635;SDS011;6383;50.830;7.210;2023-11-21T13:08:52;40.97;;;30.43;;
12635;SDS011;6383;50.830;7.210;2023-11-21T13:11:21;42.20;;;30.17;;
12635;SDS011;6383;50.830;7.210;2023-11-21T13:13:52;44.55;;;29.02;;
12635;SDS011;6383;50.830;7.210;2023-11-21T13:16:21;42.30;;;29.83;;
12635;SDS011;6383;50.830;7.210;2023-11-21T13:18:50;42.28;;;30.35;;
12635;SDS011;6383;50.830;7.210;2023-11-21T13:21:18;42.53;;;27.85;;
12635;SDS011;6383;50.830;7.210;2023-11-21T13:23:46;43.35;;;29.30;;
12635;SDS011;6383;50.830;7.210;2023-11-21T13:26:16;38.80;;;27.42;;
12635;SDS011;6383;50.830;7.210;2023-11-21T13:28:46;40.37;;;26.77;;
12635;SDS011;6383;50.830;7.210;2023-11-21T13:31:16;39.65;;;26.42;;
12635;SDS011;6383;50.830;7.210;2023-11-21T13:33:52;37.67;;;27.52;;
12635;SDS011;6383;50.830;7.210;2023-11-21T13:36:25;38.35;;;26.77;;
12635;SDS011;6383;50.830;7.210;2023-11-21T13:38:55;41.20;;;27.10;;
12635;SDS011;6383;50.830;7.210;2023-11-21T13:41:25;38.80;;;26.25;;
12635;SDS011;6383;50.830;7.210;2023-11-21T13:43:57;37.72;;;26.20;;
12635;SDS011;6383;50.830;7.210;2023-11-21T13:46:34;37.60;;;26.70;;
12635;SDS011;6383;50.830;7.210;2023-11-21T13:49:03;43.20;;;27.67;;
12635;SDS011;6383;50.830;7.210;2023-11-21T13:51:36;37.97;;;27.45;;
12635;SDS011;6383;50.830;7.210;2023-11-21T13:54:08;39.93;;;27.27;;
12635;SDS011;6383;50.830;7.210;2023-11-21T13:56:35;43.00;;;26.88;;
12635;SDS011;6383;50.830;7.210;2023-11-21T13:59:06;41.28;;;26.33;;
12635;SDS011;6383;50.830;7.210;2023-11-21T14:01:44;38.57;;;26.10;;
12635;SDS011;6383;50.830;7.210;2023-11-21T14:04:23;43.60;;;27.67;;
12635;SDS011;6383;50.830;7.210;2023-11-21T14:07:13;39.60;;;25.70;;
12635;SDS011;6383;50.830;7.210;2023-11-21T14:09:52;43.53;;;28.05;;
12635;SDS011;6383;50.830;7.210;2023-11-21T14:12:20;39.55;;;26.73;;
12635;SDS011;6383;50.830;7.210;2023-11-21T14:14:48;39.50;;;25.58;;
12635;SDS011;6383;50.830;7.210;2023-11-21T14:17:17;40.35;;;26.83;;
12635;SDS011;6383;50.830;7.210;2023-11-21T14:19:49;35.58;;;25.30;;
12635;SDS011;6383;50.830;7.210;2023-11-21T14:22:18;38.10;;;25.13;;
12635;SDS011;6383;50.830;7.210;2023-11-21T14:24:47;40.50;;;26.23;;
12635;SDS011;6383;50.830;7.210;2023-11-21T14:27:16;43.25;;;26.50;;
12635;SDS011;6383;50.830;7.210;2023-11-21T14:29:45;41.25;;;25.35;;
12635;SDS011;6383;50.830;7.210;2023-11-21T14:32:12;38.80;;;26.05;;
12635;SDS011;6383;50.830;7.210;2023-11-21T14:34:43;44.47;;;26.23;;
12635;SDS011;6383;50.830;7.210;2023-11-21T14:37:13;40.95;;;24.40;;
12635;SDS011;6383;50.830;7.210;2023-11-21T14:39:42;40.80;;;25.38;;
12635;SDS011;6383;50.830;7.210;2023-11-21T14:42:13;40.03;;;24.77;;
12635;SDS011;6383;50.830;7.210;2023-11-21T14:44:41;38.33;;;25.10;;
12635;SDS011;6383;50.830;7.210;2023-11-21T14:47:09;36.38;;;23.13;;
12635;SDS011;6383;50.830;7.210;2023-11-21T14:49:43;40.20;;;24.30;;